sensor_id;sensor_type;location;lat;lon;timestamp;temperature;humidity
12374;DHT22;6251;51.762;8.660;2022-08-05T01:08:06;22.00;99.90
12374;DHT22;6251;51.762;8.660;2022-08-05T02:49:41;20.30;99.90
12374;DHT22;6251;51.762;8.660;2022-08-05T02:59:48;20.20;99.90
12374;DHT22;6251;51.762;8.660;2022-08-05T04:21:03;19.40;99.90
12374;DHT22;6251;51.762;8.660;2022-08-05T04:31:04;19.40;99.90
12374;DHT22;6251;51.762;8.660;2022-08-05T05:03:06;17.80;99.90
12374;DHT22;6251;51.762;8.660;2022-08-05T05:13:09;17.60;99.90
12374;DHT22;6251;51.762;8.660;2022-08-05T05:23:10;17.90;99.90
12374;DHT22;6251;51.762;8.660;2022-08-05T05:33:57;18.00;99.90
12374;DHT22;6251;51.762;8.660;2022-08-05T07:06:03;18.00;99.90
12374;DHT22;6251;51.762;8.660;2022-08-05T07:26:14;18.30;99.90
12374;DHT22;6251;51.762;8.660;2022-08-05T07:36:15;18.60;99.90
12374;DHT22;6251;51.762;8.660;2022-08-05T07:46:16;18.90;99.90
12374;DHT22;6251;51.762;8.660;2022-08-05T07:56:16;19.00;99.90
12374;DHT22;6251;51.762;8.660;2022-08-05T08:06:17;19.20;99.90
12374;DHT22;6251;51.762;8.660;2022-08-05T08:16:18;19.10;99.90
12374;DHT22;6251;51.762;8.660;2022-08-05T08:26:19;19.40;99.90
12374;DHT22;6251;51.762;8.660;2022-08-05T08:36:20;19.40;99.90
12374;DHT22;6251;51.762;8.660;2022-08-05T08:46:22;19.30;99.90
12374;DHT22;6251;51.762;8.660;2022-08-05T08:56:23;19.10;99.90
12374;DHT22;6251;51.762;8.660;2022-08-05T09:06:26;18.90;99.90
12374;DHT22;6251;51.762;8.660;2022-08-05T09:16:27;18.60;99.90
12374;DHT22;6251;51.762;8.660;2022-08-05T09:26:28;18.30;99.90
12374;DHT22;6251;51.762;8.660;2022-08-05T09:36:47;18.00;99.90
12374;DHT22;6251;51.762;8.660;2022-08-05T09:46:49;17.80;99.90
12374;DHT22;6251;51.762;8.660;2022-08-05T09:56:50;17.70;99.90
12374;DHT22;6251;51.762;8.660;2022-08-05T10:06:55;17.30;99.90
12374;DHT22;6251;51.762;8.660;2022-08-05T10:17:11;17.20;99.90
12374;DHT22;6251;51.762;8.660;2022-08-05T10:27:12;17.40;99.90
12374;DHT22;6251;51.762;8.660;2022-08-05T10:37:14;17.50;99.90
12374;DHT22;6251;51.762;8.660;2022-08-05T10:47:15;17.30;99.90
12374;DHT22;6251;51.762;8.660;2022-08-05T10:57:26;17.30;99.90
12374;DHT22;6251;51.762;8.660;2022-08-05T11:07:27;17.30;99.90
12374;DHT22;6251;51.762;8.660;2022-08-05T11:17:29;17.30;99.90
12374;DHT22;6251;51.762;8.660;2022-08-05T11:27:31;17.50;99.90
12374;DHT22;6251;51.762;8.660;2022-08-05T11:37:57;17.10;99.90
12374;DHT22;6251;51.762;8.660;2022-08-05T11:47:59;16.90;99.90
12374;DHT22;6251;51.762;8.660;2022-08-05T11:58:00;17.00;99.90
12374;DHT22;6251;51.762;8.660;2022-08-05T12:08:00;17.10;99.90
12374;DHT22;6251;51.762;8.660;2022-08-05T12:18:01;17.60;99.90
12374;DHT22;6251;51.762;8.660;2022-08-05T12:28:02;17.70;99.90
12374;DHT22;6251;51.762;8.660;2022-08-05T12:38:02;17.90;99.90
12374;DHT22;6251;51.762;8.660;2022-08-05T12:48:15;18.30;99.90
12374;DHT22;6251;51.762;8.660;2022-08-05T12:58:22;18.30;99.90
12374;DHT22;6251;51.762;8.660;2022-08-05T13:08:30;18.50;99.90
12374;DHT22;6251;51.762;8.660;2022-08-05T13:18:36;18.50;99.90
12374;DHT22;6251;51.762;8.660;2022-08-05T13:28:38;18.80;99.90
12374;DHT22;6251;51.762;8.660;2022-08-05T13:38:38;19.10;99.90
12374;DHT22;6251;51.762;8.660;2022-08-05T13:48:39;19.40;99.90
12374;DHT22;6251;51.762;8.660;2022-08-05T13:58:39;19.50;99.90
12374;DHT22;6251;51.762;8.660;2022-08-05T14:08:40;19.90;99.90
12374;DHT22;6251;51.762;8.660;2022-08-05T14:18:41;20.10;99.90
12374;DHT22;6251;51.762;8.660;2022-08-05T14:28:41;20.20;99.90
12374;DHT22;6251;51.762;8.660;2022-08-05T14:38:42;20.40;99.90
12374;DHT22;6251;51.762;8.660;2022-08-05T14:48:42;20.40;99.90
12374;DHT22;6251;51.762;8.660;2022-08-05T14:58:43;20.60;99.90
12374;DHT22;6251;51.762;8.660;2022-08-05T15:08:44;20.70;99.90
12374;DHT22;6251;51.762;8.660;2022-08-05T15:18:45;20.80;99.90
12374;DHT22;6251;51.762;8.660;2022-08-05T15:28:46;21.00;99.90
12374;DHT22;6251;51.762;8.660;2022-08-05T15:38:46;21.10;99.90
12374;DHT22;6251;51.762;8.660;2022-08-05T15:48:47;21.00;99.90
12374;DHT22;6251;51.762;8.660;2022-08-05T15:58:47;21.30;99.90
12374;DHT22;6251;51.762;8.660;2022-08-05T16:08:48;22.30;99.90
12374;DHT22;6251;51.762;8.660;2022-08-05T16:18:49;22.90;99.90
12374;DHT22;6251;51.762;8.660;2022-08-05T16:28:50;22.90;99.90
12374;DHT22;6251;51.762;8.660;2022-08-05T16:38:51;22.10;99.90
12374;DHT22;6251;51.762;8.660;2022-08-05T16:48:51;21.70;99.90
12374;DHT22;6251;51.762;8.660;2022-08-05T16:58:52;21.80;99.90
12374;DHT22;6251;51.762;8.660;2022-08-05T17:08:53;22.20;99.90
12374;DHT22;6251;51.762;8.660;2022-08-05T17:18:53;21.80;99.90
12374;DHT22;6251;51.762;8.660;2022-08-05T17:28:54;21.80;99.90
12374;DHT22;6251;51.762;8.660;2022-08-05T17:38:54;21.80;99.90
12374;DHT22;6251;51.762;8.660;2022-08-05T17:48:55;21.30;99.90
12374;DHT22;6251;51.762;8.660;2022-08-05T17:58:56;21.00;99.90
12374;DHT22;6251;51.762;8.660;2022-08-05T18:08:57;20.90;99.90
12374;DHT22;6251;51.762;8.660;2022-08-05T18:18:57;20.80;99.90
12374;DHT22;6251;51.762;8.660;2022-08-05T18:28:58;20.50;99.90
12374;DHT22;6251;51.762;8.660;2022-08-05T18:38:59;20.20;99.90
12374;DHT22;6251;51.762;8.660;2022-08-05T18:49:00;19.80;99.90
12374;DHT22;6251;51.762;8.660;2022-08-05T18:59:19;19.50;99.90
12374;DHT22;6251;51.762;8.660;2022-08-05T19:09:20;19.10;99.90
12374;DHT22;6251;51.762;8.660;2022-08-05T19:19:21;18.70;99.90
12374;DHT22;6251;51.762;8.660;2022-08-05T19:29:23;18.40;99.90
12374;DHT22;6251;51.762;8.660;2022-08-05T19:39:24;18.10;99.90
12374;DHT22;6251;51.762;8.660;2022-08-05T19:49:24;17.80;99.90
12374;DHT22;6251;51.762;8.660;2022-08-05T19:59:26;17.60;99.90
12374;DHT22;6251;51.762;8.660;2022-08-05T20:09:26;17.40;99.90
12374;DHT22;6251;51.762;8.660;2022-08-05T20:19:27;17.10;99.90
12374;DHT22;6251;51.762;8.660;2022-08-05T20:29:28;16.70;99.90
12374;DHT22;6251;51.762;8.660;2022-08-05T20:39:28;16.30;99.90
12374;DHT22;6251;51.762;8.660;2022-08-05T20:49:30;16.10;99.90
12374;DHT22;6251;51.762;8.660;2022-08-05T20:59:31;15.80;99.90
12374;DHT22;6251;51.762;8.660;2022-08-05T23:01:25;13.70;99.90
12374;DHT22;6251;51.762;8.660;2022-08-05T23:11:26;13.60;99.90
